Papaaloa, HI

7:38 PM HST on July 30, 2014 (GMT -1000)
Kona International At Keahole (PHKO) Elev 43 ft | 19.74 °N, 156.05 °W | Change Station

Current weather conditions updated 45 minutes ago

Clear
Clear
82 °F
Feels Like 86 °F
N
14
Wind Variable Wind from SW

Tomorrow is forecast to be Much Cooler than today. Chance of afternoon showers.

Today
High -- | Low -- °F
--% Chance of Precip.
Yesterday
High -- | Low -- °F
Precip. -- in
5:55 AM 6:58 PM
Waxing Crescent, 16% visible
Pressure 29.96 in
Visibility 10.0 miles
Clouds Clear
Heat Index 86 °F
Dew Point 70 °F
Humidity 67%
Rainfall 0.00 in
Snow Depth Not available.
UV 0 out of 12
Pollen Not available.
PM2.5 Good
Flu Activity Not available.
METAR PHKO 310453Z 23012KT 10SM CLR 28/21 A2996 RMK AO2 SLP145 T02780211

More Conditions Fewer Conditions

Pressure 29.96 in
Visibility 10.0 miles
Clouds Clear
Heat Index 86 °F
Dew Point 70 °F
Humidity 67%
Rainfall 0.00 in
Snow Depth Not available.
UV 0 out of 12
Pollen Not available.
PM2.5 Good
Flu Activity Not available.
METAR PHKO 310453Z 23012KT 10SM CLR 28/21 A2996 RMK AO2 SLP145 T02780211

More Conditions Fewer Conditions

10-Day Weather Forecast

Almanac

Astronomy

Jul. 30, 2014 Rise Set
Actual Time 5:55 AM HST 6:58 PM HST
Civil Twilight 5:32 AM HST 7:21 PM HST
Nautical Twilight 5:04 AM HST 7:49 PM HST
Astronomical Twilight 4:35 AM HST 8:18 PM HST
Moon 9:02 AM HST (7/30) 9:25 PM HST (7/30)
Length of Visible Light 13h 49m
Length of Day
13h 02m
Tomorrow will be 0m 48s shorter.
Waxing Crescent, 16% of the Moon is Illuminated
Jul 31
Waxing Crescent
Aug 3
First Quarter
Aug 10
Full
Aug 17
Last Quarter
Aug 25
New

Yesterday's Extremes

State Highs State Lows

Community

WunderPhotos

Upload Photos

1,739,248 photos uploaded!

Nearby

Air Quality

  Air Quality AQ Index Pollutant
Yesterday Good
PM2.5
Current Good
PM2.5

Snow Depth

Station Depth Elevation
No new snow has been reported.

Earthquake Activity

City Distance Mag. Time & Date
No recent earthquake activity has been reported nearby.
Minimum magnitude displayed is 2.5.

Coastal Water Temperatures

Place Temperature
No Stations Reporting

Nearby Weather Stations

Station Location Temp. Heat Index Dew Point Humidity Wind Precip. Elev Updated Type
Hamakua Coast, Ninole, HI 70.6 °F - 67 °F 87% ENE  at  0.0 mph - / hr 1120 ft 7:33 PM HST Normal
Hakalau, Hakalau, HI 69.3 °F - 67 °F 93% SW  at  0.0 mph 0.00 in / hr 1020 ft 7:26 PM HST Normal
Kaupakuea, Pepeekeo, HI 71.7 °F - 68 °F 89% SW  at  0.0 mph 0.00 in / hr 643 ft 7:35 PM HST Normal
Honoka'a Town, Honokaa, HI 70.8 °F - 66 °F 86% SSE  at  2.0 mph 0.00 in / hr 1075 ft 7:34 PM HST Normal
Honomu, Honomu, HI 73.7 °F 72 °F 70 °F 88% WSW  at  0.0 mph 0.00 in / hr 303 ft 7:27 PM HST Normal

Show More Stations Show Fewer Stations